createdAt,value
2018-04-08T00:01:33.524Z,18.25
2018-04-08T00:04:03.319Z,18.22
2018-04-08T00:06:32.284Z,18.18
2018-04-08T00:09:01.269Z,18.15
2018-04-08T00:11:30.611Z,18.16
2018-04-08T00:13:59.524Z,18.15
2018-04-08T00:16:28.430Z,18.13
2018-04-08T00:18:57.692Z,18.09
2018-04-08T00:21:26.585Z,18.08
2018-04-08T00:23:55.484Z,18.05
2018-04-08T00:26:24.707Z,17.99
2018-04-08T00:28:53.609Z,17.96
2018-04-08T00:31:22.508Z,17.90
2018-04-08T00:33:51.870Z,17.89
2018-04-08T00:36:20.948Z,17.78
2018-04-08T00:38:49.852Z,17.69
2018-04-08T00:41:19.080Z,17.65
2018-04-08T00:43:47.970Z,17.60
2018-04-08T00:46:16.920Z,17.58
2018-04-08T00:48:46.440Z,17.60
2018-04-08T00:51:15.321Z,17.58
2018-04-08T00:53:44.338Z,17.55
2018-04-08T00:56:13.559Z,17.53
2018-04-08T00:58:42.473Z,17.49
2018-04-08T01:01:11.428Z,17.48
2018-04-08T01:03:40.900Z,17.49
2018-04-08T01:06:09.806Z,17.48
2018-04-08T01:08:38.850Z,17.45
2018-04-08T01:11:08.156Z,17.36
2018-04-08T01:13:37.079Z,17.31
2018-04-08T01:16:06.026Z,17.23
2018-04-08T01:18:35.429Z,17.16
2018-04-08T01:21:04.328Z,17.13
2018-04-08T01:23:33.304Z,17.12
2018-04-08T01:26:03.267Z,17.09
2018-04-08T01:28:32.281Z,17.06
2018-04-08T01:31:01.160Z,17.01
2018-04-08T01:33:30.420Z,16.99
2018-04-08T01:35:59.316Z,16.95
2018-04-08T01:38:42.668Z,16.91
2018-04-08T01:41:11.915Z,16.83
2018-04-08T01:43:41.003Z,16.84
2018-04-08T01:46:09.964Z,16.85
2018-04-08T01:48:39.278Z,16.80
2018-04-08T01:51:08.177Z,16.75
2018-04-08T01:53:37.066Z,16.77
2018-04-08T01:56:06.338Z,16.80
2018-04-08T01:58:35.881Z,16.82
2018-04-08T02:01:04.798Z,16.80
2018-04-08T02:03:34.124Z,16.75
2018-04-08T02:06:03.608Z,16.70
2018-04-08T02:08:32.544Z,16.65
2018-04-08T02:11:01.958Z,16.61
2018-04-08T02:13:30.876Z,16.62
2018-04-08T02:15:59.800Z,16.57
2018-04-08T02:18:29.050Z,16.47
2018-04-08T02:20:57.974Z,16.45
2018-04-08T02:23:27.008Z,16.33
2018-04-08T02:25:56.509Z,16.29
2018-04-08T02:28:25.712Z,16.25
2018-04-08T02:30:54.948Z,16.18
2018-04-08T02:33:24.669Z,16.10
2018-04-08T02:35:53.966Z,16.09
2018-04-08T02:38:22.890Z,16.07
2018-04-08T02:40:52.143Z,16.02
2018-04-08T02:43:21.018Z,16.03
2018-04-08T02:45:50.065Z,16.00
2018-04-08T02:48:20.130Z,16.02
2018-04-08T02:50:49.061Z,16.03
2018-04-08T02:53:17.964Z,16.04
2018-04-08T02:55:48.124Z,16.01
2018-04-08T02:58:17.216Z,15.97
2018-04-08T03:00:46.413Z,15.93
2018-04-08T03:03:15.790Z,15.91
2018-04-08T03:05:44.857Z,15.82
2018-04-08T03:08:13.760Z,15.73
2018-04-08T03:10:42.985Z,15.65
2018-04-08T03:13:12.333Z,15.62
2018-04-08T03:15:41.453Z,15.61
2018-04-08T03:18:10.708Z,15.58
2018-04-08T03:20:39.820Z,15.56
2018-04-08T03:23:08.755Z,15.54
2018-04-08T03:25:37.633Z,15.52
2018-04-08T03:28:06.521Z,15.48
2018-04-08T03:30:35.844Z,15.47
2018-04-08T03:33:04.804Z,15.47
2018-04-08T03:35:33.721Z,15.48
2018-04-08T03:38:04.033Z,15.46
2018-04-08T03:40:32.976Z,15.45
2018-04-08T03:43:01.880Z,15.42
2018-04-08T03:45:31.170Z,15.39
2018-04-08T03:48:00.074Z,15.34
2018-04-08T03:50:29.009Z,15.30
2018-04-08T03:52:58.332Z,15.24
2018-04-08T03:55:27.224Z,15.21
2018-04-08T03:57:56.190Z,15.22
2018-04-08T04:00:25.567Z,15.17
2018-04-08T04:02:54.580Z,15.13
2018-04-08T04:05:23.577Z,15.08
2018-04-08T04:07:53.885Z,15.06
2018-04-08T04:10:22.879Z,15.05
2018-04-08T04:12:51.896Z,15.04
2018-04-08T04:15:21.276Z,15.05
2018-04-08T04:17:50.216Z,15.05
2018-04-08T04:22:31.815Z,15.03
2018-04-08T04:25:17.353Z,15.01
2018-04-08T04:27:46.670Z,15.00
2018-04-08T04:30:15.596Z,14.95
2018-04-08T04:32:44.840Z,14.88
2018-04-08T04:35:14.284Z,14.84
2018-04-08T04:37:43.297Z,14.80
2018-04-08T04:40:12.135Z,14.76
2018-04-08T04:42:41.576Z,14.74
2018-04-08T04:45:10.436Z,14.73
2018-04-08T04:47:39.414Z,14.74
2018-04-08T04:50:08.607Z,14.74
2018-04-08T04:52:37.551Z,14.71
2018-04-08T04:55:06.419Z,14.70
2018-04-08T04:57:35.669Z,14.71
2018-04-08T05:00:05.292Z,14.66
2018-04-08T05:02:34.207Z,14.64
2018-04-08T05:05:03.108Z,14.65
2018-04-08T05:07:32.039Z,14.59
2018-04-08T05:10:01.000Z,14.55
2018-04-08T05:12:29.950Z,14.52
2018-04-08T05:14:59.081Z,14.56
2018-04-08T05:17:29.398Z,14.58
2018-04-08T05:19:58.320Z,14.63
2018-04-08T05:24:56.470Z,14.72
2018-04-08T05:27:25.400Z,14.73
2018-04-08T05:29:54.334Z,14.74
2018-04-08T05:32:23.622Z,14.79
2018-04-08T05:34:52.557Z,14.86
2018-04-08T05:37:21.484Z,14.89
2018-04-08T05:39:50.858Z,14.92
2018-04-08T05:42:19.778Z,14.97
2018-04-08T05:44:48.721Z,14.99
2018-04-08T05:47:17.747Z,15.03
2018-04-08T05:49:46.731Z,15.09
2018-04-08T05:52:16.186Z,15.17
2018-04-08T05:54:45.140Z,15.28
2018-04-08T05:57:14.142Z,15.38
2018-04-08T05:59:43.055Z,15.46
2018-04-08T06:02:12.080Z,15.55
2018-04-08T06:04:41.577Z,15.59
2018-04-08T06:07:10.541Z,15.64
2018-04-08T06:09:39.472Z,15.66
2018-04-08T06:12:08.741Z,15.66
2018-04-08T06:14:37.709Z,15.74
2018-04-08T06:17:06.741Z,15.80
2018-04-08T06:19:36.213Z,15.86
2018-04-08T06:22:05.768Z,15.91
2018-04-08T06:24:34.797Z,15.96
2018-04-08T06:27:04.150Z,15.99
2018-04-08T06:29:33.039Z,15.98
2018-04-08T06:32:02.722Z,16.00
2018-04-08T06:34:32.205Z,16.05
2018-04-08T06:37:01.295Z,16.07
2018-04-08T06:39:30.280Z,16.09
2018-04-08T06:41:59.717Z,16.08
2018-04-08T06:44:28.624Z,16.10
2018-04-08T06:46:57.593Z,16.11
2018-04-08T06:49:27.139Z,16.14
2018-04-08T06:51:56.325Z,16.15
2018-04-08T06:54:25.286Z,16.20
2018-04-08T06:56:54.709Z,16.24
2018-04-08T06:59:23.731Z,16.28
2018-04-08T07:01:52.706Z,16.36
2018-04-08T07:04:22.173Z,16.45
2018-04-08T07:06:51.085Z,16.56
2018-04-08T07:09:19.987Z,16.61
2018-04-08T07:11:49.052Z,16.68
2018-04-08T07:14:18.080Z,16.71
2018-04-08T07:16:47.485Z,16.65
2018-04-08T07:19:16.413Z,16.68
2018-04-08T07:21:46.216Z,16.73
2018-04-08T07:24:15.181Z,16.77
2018-04-08T07:26:44.307Z,16.84
2018-04-08T07:29:13.612Z,16.86
2018-04-08T07:31:43.312Z,16.87
2018-04-08T07:34:12.225Z,16.90
2018-04-08T07:36:41.605Z,16.95
2018-04-08T07:39:10.529Z,16.95
2018-04-08T07:41:45.118Z,17.02
2018-04-08T07:44:16.319Z,17.07
2018-04-08T07:46:46.962Z,17.13
2018-04-08T07:49:16.001Z,17.15
2018-04-08T07:51:45.466Z,17.15
2018-04-08T07:54:14.510Z,17.22
2018-04-08T07:56:43.629Z,17.29
2018-04-08T07:59:12.517Z,17.38
2018-04-08T08:01:41.616Z,17.43
2018-04-08T08:04:10.915Z,17.55
2018-04-08T08:06:40.236Z,17.72
2018-04-08T08:09:09.328Z,17.87
2018-04-08T08:11:38.396Z,17.97
2018-04-08T08:14:07.874Z,18.04
2018-04-08T08:16:37.336Z,18.15
2018-04-08T08:19:06.336Z,18.33
2018-04-08T08:21:35.342Z,18.48
2018-04-08T08:24:05.379Z,18.49
2018-04-08T08:26:34.357Z,18.46
2018-04-08T08:29:03.758Z,18.48
2018-04-08T08:31:32.766Z,18.33
2018-04-08T08:34:02.519Z,18.57
2018-04-08T08:36:31.483Z,18.49
2018-04-08T08:39:00.591Z,18.69
2018-04-08T08:41:29.929Z,18.77
2018-04-08T08:43:58.989Z,18.86
2018-04-08T08:46:27.892Z,18.98
2018-04-08T08:48:57.277Z,19.02
2018-04-08T08:51:26.337Z,19.11
2018-04-08T08:53:55.412Z,19.22
2018-04-08T08:56:24.763Z,19.40
2018-04-08T08:58:53.716Z,19.70
2018-04-08T09:01:22.677Z,19.80
2018-04-08T09:03:52.247Z,19.88
2018-04-08T09:06:21.149Z,20.06
2018-04-08T09:08:50.276Z,20.20
2018-04-08T09:11:19.536Z,20.40
2018-04-08T09:13:48.531Z,20.60
2018-04-08T09:16:17.589Z,20.75
2018-04-08T09:18:47.076Z,20.94
2018-04-08T09:21:16.345Z,20.87
2018-04-08T09:23:45.908Z,21.13
2018-04-08T09:26:15.372Z,21.18
2018-04-08T09:28:44.349Z,21.39
2018-04-08T09:31:14.100Z,21.63
2018-04-08T09:33:44.686Z,21.77
2018-04-08T09:36:13.671Z,21.90
2018-04-08T09:38:42.600Z,22.30
2018-04-08T09:41:11.948Z,22.20
2018-04-08T09:43:41.489Z,22.46
2018-04-08T09:46:11.249Z,22.50
2018-04-08T09:48:40.276Z,22.59
2018-04-08T09:51:09.758Z,22.81
2018-04-08T09:53:39.238Z,23.04
2018-04-08T09:56:08.225Z,23.15
2018-04-08T09:58:37.236Z,23.29
2018-04-08T10:01:07.045Z,23.44
2018-04-08T10:03:37.041Z,23.63
2018-04-08T10:06:06.372Z,23.75
2018-04-08T10:08:35.347Z,24.00
2018-04-08T10:11:04.481Z,23.56
2018-04-08T10:13:34.263Z,23.60
2018-04-08T10:16:04.624Z,23.96
2018-04-08T10:18:33.852Z,24.42
2018-04-08T10:21:03.373Z,24.72
2018-04-08T10:23:32.372Z,24.93
2018-04-08T10:26:02.177Z,25.32
2018-04-08T10:28:31.653Z,25.30
2018-04-08T10:31:00.604Z,25.44
2018-04-08T10:33:29.509Z,25.86
2018-04-08T10:35:58.441Z,26.03
2018-04-08T10:38:27.413Z,26.02
2018-04-08T10:40:59.140Z,26.27
2018-04-08T10:43:32.059Z,26.59
2018-04-08T10:46:01.738Z,27.01
2018-04-08T10:48:30.644Z,27.18
2018-04-08T10:51:01.710Z,27.39
2018-04-08T10:53:31.625Z,27.76
2018-04-08T10:56:00.784Z,27.88
2018-04-08T10:58:30.408Z,28.38
2018-04-08T11:00:59.435Z,28.46
2018-04-08T11:03:28.548Z,28.51
2018-04-08T11:05:58.131Z,28.75
2018-04-08T11:08:27.348Z,28.72
2018-04-08T11:10:56.412Z,29.22
2018-04-08T11:13:25.579Z,29.59
2018-04-08T11:15:55.175Z,29.69
2018-04-08T11:18:24.534Z,29.66
2018-04-08T11:20:55.092Z,29.89
2018-04-08T11:23:25.910Z,30.13
2018-04-08T11:25:57.730Z,30.49
2018-04-08T11:28:27.817Z,30.67
2018-04-08T11:30:57.918Z,30.71
2018-04-08T11:33:28.100Z,30.72
2018-04-08T11:35:57.732Z,30.51
2018-04-08T11:38:28.024Z,30.01
2018-04-08T11:40:58.171Z,30.29
2018-04-08T11:43:28.477Z,30.56
2018-04-08T11:45:58.236Z,30.68
2018-04-08T11:48:27.528Z,30.66
2018-04-08T11:50:57.170Z,30.57
2018-04-08T11:54:29.210Z,30.59
2018-04-08T11:56:59.102Z,30.83
2018-04-08T11:59:29.489Z,30.92
2018-04-08T12:01:59.737Z,31.26
2018-04-08T12:04:29.325Z,31.64
2018-04-08T12:06:58.832Z,32.10
2018-04-08T12:09:27.891Z,32.48
2018-04-08T12:11:57.889Z,32.49
2018-04-08T12:14:27.167Z,32.12
2018-04-08T12:16:56.697Z,32.48
2018-04-08T12:19:25.692Z,32.47
2018-04-08T12:21:55.193Z,32.81
2018-04-08T12:24:24.604Z,33.22
2018-04-08T12:26:54.549Z,33.51
2018-04-08T12:29:23.971Z,33.84
2018-04-08T12:31:53.049Z,33.61
2018-04-08T12:34:22.412Z,33.79
2018-04-08T12:36:52.952Z,33.44
2018-04-08T12:39:21.903Z,33.52
2018-04-08T12:41:50.888Z,33.77
2018-04-08T12:44:20.249Z,33.63
2018-04-08T12:46:49.314Z,33.78
2018-04-08T12:49:18.335Z,33.76
2018-04-08T12:51:47.944Z,34.36
2018-04-08T12:54:17.006Z,34.58
2018-04-08T12:56:45.922Z,34.61
2018-04-08T12:59:15.222Z,34.81
2018-04-08T13:01:44.140Z,34.69
2018-04-08T13:04:13.451Z,34.60
2018-04-08T13:06:43.183Z,34.04
2018-04-08T13:09:12.098Z,34.32
2018-04-08T13:11:41.638Z,34.73
2018-04-08T13:14:10.698Z,35.07
2018-04-08T13:16:40.005Z,35.10
2018-04-08T13:19:09.427Z,35.29
2018-04-08T13:21:38.460Z,35.81
2018-04-08T13:24:07.365Z,35.99
2018-04-08T13:26:36.636Z,35.87
2018-04-08T13:29:05.560Z,35.84
2018-04-08T13:31:34.457Z,36.13
2018-04-08T13:34:04.722Z,35.91
2018-04-08T13:36:33.627Z,36.24
2018-04-08T13:39:03.736Z,36.19
2018-04-08T13:41:33.034Z,36.23
2018-04-08T13:44:04.270Z,36.61
2018-04-08T13:46:34.205Z,36.55
2018-04-08T13:49:04.328Z,36.33
2018-04-08T13:51:33.219Z,36.74
2018-04-08T13:54:03.983Z,36.93
2018-04-08T13:56:33.196Z,36.40
2018-04-08T13:59:02.597Z,36.36
2018-04-08T14:01:31.586Z,36.87
2018-04-08T14:04:00.852Z,37.23
2018-04-08T14:06:29.887Z,36.70
2018-04-08T14:09:00.098Z,36.46
2018-04-08T14:11:29.319Z,35.94
2018-04-08T14:13:58.230Z,35.61
2018-04-08T14:16:27.138Z,35.11
2018-04-08T14:18:56.455Z,35.16
2018-04-08T14:21:25.340Z,35.15
2018-04-08T14:23:54.240Z,35.68
2018-04-08T14:26:23.161Z,36.20
2018-04-08T14:28:52.585Z,36.01
2018-04-08T14:31:21.938Z,36.15
2018-04-08T14:33:50.941Z,35.61
2018-04-08T14:36:19.934Z,35.27
2018-04-08T14:38:48.824Z,35.25
2018-04-08T14:41:17.779Z,35.10
2018-04-08T14:43:47.148Z,35.05
2018-04-08T14:46:16.141Z,34.69
2018-04-08T14:48:45.063Z,33.92
2018-04-08T14:51:14.105Z,32.89
2018-04-08T14:53:43.094Z,32.53
2018-04-08T14:56:12.500Z,32.13
2018-04-08T14:58:41.845Z,32.27
2018-04-08T15:01:11.234Z,32.62
2018-04-08T15:03:40.593Z,32.38
2018-04-08T15:06:10.579Z,32.34
2018-04-08T15:08:39.781Z,31.90
2018-04-08T15:11:09.117Z,32.04
2018-04-08T15:13:38.220Z,32.27
2018-04-08T15:16:07.263Z,32.50
2018-04-08T15:18:36.591Z,32.24
2018-04-08T15:21:05.748Z,31.66
2018-04-08T15:23:34.770Z,31.84
2018-04-08T15:26:05.655Z,32.08
2018-04-08T15:28:34.587Z,32.74
2018-04-08T15:31:04.286Z,33.29
2018-04-08T15:33:33.209Z,33.36
2018-04-08T15:36:03.172Z,33.62
2018-04-08T15:38:32.076Z,33.76
2018-04-08T15:41:01.616Z,34.05
2018-04-08T15:43:31.205Z,33.84
2018-04-08T15:46:00.142Z,34.15
2018-04-08T15:48:29.127Z,34.27
2018-04-08T15:50:58.039Z,34.26
2018-04-08T15:53:27.558Z,34.22
2018-04-08T15:55:56.908Z,34.05
2018-04-08T15:58:25.831Z,33.93
2018-04-08T16:00:54.732Z,33.59
2018-04-08T16:03:24.045Z,33.80
2018-04-08T16:05:52.980Z,33.87
2018-04-08T16:08:21.961Z,33.66
2018-04-08T16:10:51.312Z,33.28
2018-04-08T16:13:20.319Z,33.02
2018-04-08T16:15:49.304Z,32.83
2018-04-08T16:18:18.673Z,32.51
2018-04-08T16:20:47.633Z,32.33
2018-04-08T16:23:16.603Z,32.12
2018-04-08T16:25:46.459Z,31.88
2018-04-08T16:28:15.404Z,31.47
2018-04-08T16:30:44.516Z,31.00
2018-04-08T16:33:13.784Z,30.73
2018-04-08T16:35:42.800Z,30.64
2018-04-08T16:38:11.703Z,30.42
2018-04-08T16:40:41.268Z,30.25
2018-04-08T16:43:10.195Z,29.85
2018-04-08T16:45:39.176Z,29.61
2018-04-08T16:48:08.504Z,29.51
2018-04-08T16:50:37.406Z,29.44
2018-04-08T16:53:06.431Z,29.22
2018-04-08T16:55:35.700Z,28.99
2018-04-08T16:58:05.200Z,28.93
2018-04-08T17:00:34.256Z,28.79
2018-04-08T17:03:04.669Z,28.65
2018-04-08T17:05:33.548Z,28.55
2018-04-08T17:08:03.601Z,28.48
2018-04-08T17:10:32.510Z,28.37
2018-04-08T17:13:01.502Z,28.28
2018-04-08T17:15:30.420Z,28.22
2018-04-08T17:17:59.417Z,28.14
2018-04-08T17:20:28.863Z,28.00
2018-04-08T17:22:57.832Z,27.82
2018-04-08T17:25:26.828Z,27.72
2018-04-08T17:27:56.473Z,27.57
2018-04-08T17:30:25.388Z,27.48
2018-04-08T17:32:54.522Z,27.43
2018-04-08T17:35:23.758Z,27.24
2018-04-08T17:37:52.742Z,27.10
2018-04-08T17:40:21.693Z,26.95
2018-04-08T17:42:51.154Z,26.90
2018-04-08T17:45:20.251Z,26.77
2018-04-08T17:47:49.266Z,26.69
2018-04-08T17:52:46.253Z,26.54
2018-04-08T17:55:15.201Z,26.48
2018-04-08T17:57:44.463Z,26.48
2018-04-08T18:00:13.815Z,26.42
2018-04-08T18:02:42.920Z,26.34
2018-04-08T18:05:12.351Z,26.26
2018-04-08T18:07:41.876Z,26.25
2018-04-08T18:10:10.797Z,26.12
2018-04-08T18:12:41.484Z,26.07
2018-04-08T18:15:10.683Z,25.98
2018-04-08T18:17:39.775Z,25.90
2018-04-08T18:20:09.418Z,25.85
2018-04-08T18:22:38.376Z,25.72
2018-04-08T18:25:08.167Z,25.63
2018-04-08T18:27:37.606Z,25.57
2018-04-08T18:30:06.517Z,25.51
2018-04-08T18:32:35.972Z,25.35
2018-04-08T18:35:05.354Z,25.22
2018-04-08T18:37:34.582Z,25.10
2018-04-08T18:40:04.557Z,25.06
2018-04-08T18:42:34.275Z,25.03
2018-04-08T18:45:03.810Z,24.98
2018-04-08T18:47:33.132Z,24.94
2018-04-08T18:50:04.869Z,24.87
2018-04-08T18:52:33.828Z,24.83
2018-04-08T18:55:03.060Z,24.78
2018-04-08T18:57:32.425Z,24.72
2018-04-08T19:00:03.552Z,24.69
2018-04-08T19:02:32.517Z,24.70
2018-04-08T19:05:01.843Z,24.66
2018-04-08T19:07:30.899Z,24.60
2018-04-08T19:09:59.842Z,24.48
2018-04-08T19:12:29.220Z,24.38
2018-04-08T19:15:02.463Z,24.22
2018-04-08T19:17:35.481Z,24.10
2018-04-08T19:20:08.353Z,24.02
2018-04-08T19:22:37.609Z,23.93
2018-04-08T19:25:06.534Z,23.83
2018-04-08T19:27:36.049Z,23.77
2018-04-08T19:30:10.096Z,23.72
2018-04-08T19:32:38.896Z,23.69
2018-04-08T19:35:07.880Z,23.63
2018-04-08T19:37:37.448Z,23.53
2018-04-08T19:40:06.447Z,23.49
2018-04-08T19:42:35.693Z,23.43
2018-04-08T19:45:05.039Z,23.38
2018-04-08T19:47:34.209Z,23.35
2018-04-08T19:50:03.885Z,23.32
2018-04-08T19:52:33.169Z,23.30
2018-04-08T19:55:02.212Z,23.30
2018-04-08T19:57:31.157Z,23.31
2018-04-08T20:00:00.025Z,23.31
2018-04-08T20:02:28.988Z,23.28
2018-04-08T20:05:00.933Z,23.22
2018-04-08T20:07:33.245Z,23.22
2018-04-08T20:10:04.489Z,23.19
2018-04-08T20:12:33.598Z,23.15
2018-04-08T20:15:03.286Z,23.15
2018-04-08T20:17:32.169Z,23.14
2018-04-08T20:20:01.265Z,23.10
2018-04-08T20:22:31.393Z,23.06
2018-04-08T20:25:00.282Z,23.01
2018-04-08T20:27:29.230Z,22.95
2018-04-08T20:29:58.473Z,22.91
2018-04-08T20:32:28.597Z,22.89
2018-04-08T20:34:57.946Z,22.84
2018-04-08T20:37:26.880Z,22.77
2018-04-08T20:39:55.825Z,22.71
2018-04-08T20:42:25.020Z,22.67
2018-04-08T20:44:54.570Z,22.64
2018-04-08T20:47:23.465Z,22.58
2018-04-08T20:49:52.844Z,22.50
2018-04-08T20:52:21.760Z,22.38
2018-04-08T20:54:50.863Z,22.27
2018-04-08T20:57:20.047Z,22.22
2018-04-08T20:59:48.929Z,22.09
2018-04-08T21:02:17.800Z,22.07
2018-04-08T21:04:47.340Z,22.03
2018-04-08T21:07:16.245Z,21.92
2018-04-08T21:09:45.117Z,21.86
2018-04-08T21:12:14.321Z,21.83
2018-04-08T21:14:43.263Z,21.79
2018-04-08T21:17:12.177Z,21.78
2018-04-08T21:19:41.632Z,21.72
2018-04-08T21:22:10.716Z,21.70
2018-04-08T21:24:39.889Z,21.63
2018-04-08T21:27:09.277Z,21.57
2018-04-08T21:29:38.185Z,21.54
2018-04-08T21:32:07.089Z,21.49
2018-04-08T21:34:36.472Z,21.47
2018-04-08T21:37:05.365Z,21.44
2018-04-08T21:39:34.376Z,21.40
2018-04-08T21:42:04.446Z,21.33
2018-04-08T21:44:33.464Z,21.30
2018-04-08T21:47:02.417Z,21.27
2018-04-08T21:49:31.769Z,21.25
2018-04-08T21:52:00.730Z,21.25
2018-04-08T21:54:29.653Z,21.20
2018-04-08T21:56:59.005Z,21.19
2018-04-08T21:59:27.883Z,21.14
2018-04-08T22:01:56.812Z,21.10
2018-04-08T22:04:26.105Z,21.06
2018-04-08T22:06:55.733Z,21.05
2018-04-08T22:09:24.697Z,20.99
2018-04-08T22:11:53.908Z,20.93
2018-04-08T22:14:22.892Z,20.86
2018-04-08T22:16:51.791Z,20.81
2018-04-08T22:20:23.632Z,20.75
2018-04-08T22:22:52.534Z,20.74
2018-04-08T22:25:21.848Z,20.65
2018-04-08T22:27:52.086Z,20.59
2018-04-08T22:30:21.192Z,20.49
2018-04-08T22:32:51.286Z,20.45
2018-04-08T22:35:20.204Z,20.42
2018-04-08T22:37:49.129Z,20.42
2018-04-08T22:40:18.456Z,20.39
2018-04-08T22:42:47.468Z,20.38
2018-04-08T22:45:16.593Z,20.43
2018-04-08T22:47:45.978Z,20.43
2018-04-08T22:50:15.030Z,20.44
2018-04-08T22:52:44.192Z,20.40
2018-04-08T22:55:13.448Z,20.36
2018-04-08T22:57:42.551Z,20.28
2018-04-08T23:00:11.848Z,20.24
2018-04-08T23:02:41.280Z,20.21
2018-04-08T23:05:10.163Z,20.17
2018-04-08T23:07:39.045Z,20.16
2018-04-08T23:10:08.117Z,20.16
2018-04-08T23:12:37.260Z,20.11
2018-04-08T23:15:06.943Z,19.99
2018-04-08T23:17:35.841Z,19.87
2018-04-08T23:20:05.672Z,19.85
2018-04-08T23:22:34.586Z,19.85
2018-04-08T23:25:03.560Z,19.86
2018-04-08T23:27:33.836Z,19.81
2018-04-08T23:30:04.034Z,19.78
2018-04-08T23:32:34.457Z,19.77
2018-04-08T23:35:04.142Z,19.76
2018-04-08T23:37:33.105Z,19.76
2018-04-08T23:40:03.274Z,19.69
2018-04-08T23:42:36.224Z,19.65
2018-04-08T23:45:06.041Z,19.63
2018-04-08T23:47:35.614Z,19.63
2018-04-08T23:50:06.956Z,19.60
2018-04-08T23:52:36.868Z,19.53
2018-04-08T23:55:05.841Z,19.41
2018-04-08T23:57:35.279Z,19.35
